CHS weather

Charleston Air Force Base-International Airport
Charleston, South Carolina, United States

Public forecast

Using degrees Fahrenheit for public forecast. Weather courtesy of forecast.io.

METAR (pilot weather report)

Retrieved 2017/12/15 15:56 UTC (33 minutes ago):

KCHS 151556Z 25008KT 10SM BKN120 BKN200 16/04 A3002 RMK AO2 SLP165 T01560044

TAF (pilot weather forecast)

Retrieved 2017/12/15 12:22 UTC (4 hours ago):

TAF KCHS 151120Z 1512/1612 25004KT P6SM BKN200 FM152000 27010KT P6SM BKN200 FM160300 30006KT P6SM OVC150 FM160800 35005KT P6SM FEW250